createdAt,value
2018-11-01T00:02:02.367Z,53.40
2018-11-01T00:04:30.437Z,53.40
2018-11-01T00:06:58.494Z,53.40
2018-11-01T00:09:26.556Z,53.40
2018-11-01T00:11:54.619Z,53.40
2018-11-01T00:14:22.690Z,53.40
2018-11-01T00:16:50.750Z,53.40
2018-11-01T00:19:18.817Z,53.40
2018-11-01T00:21:46.879Z,53.40
2018-11-01T00:24:14.951Z,53.30
2018-11-01T00:26:43.070Z,52.80
2018-11-01T00:29:11.466Z,53.30
2018-11-01T00:31:39.535Z,53.30
2018-11-01T00:34:07.601Z,53.40
2018-11-01T00:36:35.808Z,53.40
2018-11-01T00:39:05.773Z,53.40
2018-11-01T00:41:33.864Z,53.40
2018-11-01T00:44:02.017Z,53.40
2018-11-01T00:46:30.062Z,53.40
2018-11-01T00:48:58.498Z,53.40
2018-11-01T00:51:26.871Z,53.40
2018-11-01T00:53:54.943Z,53.40
2018-11-01T00:56:23.007Z,53.40
2018-11-01T00:58:51.117Z,53.40
2018-11-01T01:01:19.629Z,53.40
2018-11-01T01:03:48.051Z,53.40
2018-11-01T01:06:16.135Z,53.40
2018-11-01T01:08:44.219Z,53.40
2018-11-01T01:11:12.294Z,53.40
2018-11-01T01:13:40.395Z,53.40
2018-11-01T01:16:08.455Z,53.40
2018-11-01T01:18:36.546Z,53.40
2018-11-01T01:21:04.791Z,54.10
2018-11-01T01:23:32.869Z,53.40
2018-11-01T01:26:00.924Z,53.40
2018-11-01T01:28:28.987Z,53.40
2018-11-01T01:30:57.047Z,53.40
2018-11-01T01:33:25.111Z,53.40
2018-11-01T01:35:53.180Z,53.40
2018-11-01T01:38:21.258Z,53.30
2018-11-01T01:40:49.314Z,53.40
2018-11-01T01:43:17.397Z,53.40
2018-11-01T01:45:45.472Z,53.40
2018-11-01T01:48:13.538Z,52.90
2018-11-01T01:50:41.967Z,53.60
2018-11-01T01:53:10.103Z,53.40
2018-11-01T01:55:38.174Z,53.40
2018-11-01T01:58:06.587Z,53.50
2018-11-01T02:00:34.646Z,53.40
2018-11-01T02:03:03.176Z,53.40
2018-11-01T02:05:31.227Z,53.40
2018-11-01T02:07:59.305Z,53.40
2018-11-01T02:10:27.367Z,53.40
2018-11-01T02:12:55.471Z,53.40
2018-11-01T02:15:23.551Z,53.30
2018-11-01T02:17:51.631Z,53.20
2018-11-01T02:20:20.630Z,53.40
2018-11-01T02:22:48.721Z,53.40
2018-11-01T02:25:16.789Z,53.40
2018-11-01T02:27:50.307Z,53.40
2018-11-01T02:30:19.085Z,53.40
2018-11-01T02:32:47.297Z,53.40
2018-11-01T02:35:16.387Z,53.40
2018-11-01T02:37:44.909Z,53.40
2018-11-01T02:40:13.457Z,53.40
2018-11-01T02:42:42.197Z,53.10
2018-11-01T02:45:11.431Z,53.40
2018-11-01T02:47:39.747Z,53.40
2018-11-01T02:50:08.295Z,53.30
2018-11-01T02:52:36.655Z,53.30
2018-11-01T02:55:05.283Z,53.40
2018-11-01T02:57:33.347Z,53.40
2018-11-01T03:00:01.435Z,53.40
2018-11-01T03:02:29.710Z,53.50
2018-11-01T03:04:57.789Z,53.50
2018-11-01T03:07:25.888Z,53.50
2018-11-01T03:09:53.963Z,53.40
2018-11-01T03:12:22.059Z,53.50
2018-11-01T03:14:50.183Z,53.50
2018-11-01T03:17:18.309Z,53.70
2018-11-01T03:19:46.334Z,53.50
2018-11-01T03:22:14.415Z,53.50
2018-11-01T03:24:42.562Z,53.50
2018-11-01T03:27:10.625Z,53.50
2018-11-01T03:29:38.702Z,53.60
2018-11-01T03:32:06.757Z,53.60
2018-11-01T03:34:34.835Z,53.60
2018-11-01T03:37:03.090Z,53.70
2018-11-01T03:39:31.175Z,53.60
2018-11-01T03:41:59.567Z,53.60
2018-11-01T03:44:27.642Z,53.60
2018-11-01T03:46:55.723Z,53.60
2018-11-01T03:49:23.929Z,53.50
2018-11-01T03:51:52.026Z,53.60
2018-11-01T03:54:20.318Z,53.50
2018-11-01T03:56:48.386Z,53.90
2018-11-01T03:59:16.574Z,53.60
2018-11-01T04:01:44.658Z,53.50
2018-11-01T04:04:12.814Z,53.50
2018-11-01T04:06:41.031Z,53.50
2018-11-01T04:09:11.255Z,53.50
2018-11-01T04:11:40.035Z,53.60
2018-11-01T04:14:08.223Z,53.60
2018-11-01T04:16:36.687Z,53.60
2018-11-01T04:19:05.519Z,53.60
2018-11-01T04:21:33.588Z,53.60
2018-11-01T04:24:01.671Z,53.60
2018-11-01T04:26:29.747Z,53.50
2018-11-01T04:28:58.444Z,53.50
2018-11-01T04:31:26.454Z,53.50
2018-11-01T04:33:54.553Z,53.50
2018-11-01T04:36:23.011Z,53.40
2018-11-01T04:38:51.014Z,53.40
2018-11-01T04:41:19.093Z,53.40
2018-11-01T04:43:47.170Z,53.40
2018-11-01T04:46:15.312Z,53.40
2018-11-01T04:48:44.011Z,53.40
2018-11-01T04:51:12.101Z,53.50
2018-11-01T04:53:40.182Z,53.50
2018-11-01T04:56:08.272Z,53.40
2018-11-01T04:58:36.819Z,53.40
2018-11-01T05:01:05.279Z,53.40
2018-11-01T05:03:33.454Z,53.40
2018-11-01T05:06:01.471Z,53.40
2018-11-01T05:08:29.563Z,53.50
2018-11-01T05:10:57.647Z,53.30
2018-11-01T05:13:25.782Z,53.90
2018-11-01T05:15:53.850Z,53.30
2018-11-01T05:18:21.941Z,52.70
2018-11-01T05:20:49.995Z,52.50
2018-11-01T05:23:18.106Z,52.00
2018-11-01T05:25:46.230Z,51.40
2018-11-01T05:28:14.234Z,50.60
2018-11-01T05:30:42.307Z,50.20
2018-11-01T05:33:10.371Z,49.90
2018-11-01T05:35:38.587Z,50.50
2018-11-01T05:38:06.674Z,50.70
2018-11-01T05:40:34.723Z,51.30
2018-11-01T05:43:02.798Z,51.20
2018-11-01T05:45:30.867Z,52.10
2018-11-01T05:47:59.247Z,52.30
2018-11-01T05:50:27.417Z,51.90
2018-11-01T05:52:55.479Z,51.80
2018-11-01T05:55:23.655Z,51.40
2018-11-01T05:57:52.039Z,51.50
2018-11-01T06:00:20.181Z,51.30
2018-11-01T06:02:49.547Z,51.50
2018-11-01T06:05:17.647Z,51.50
2018-11-01T06:07:49.790Z,51.50
2018-11-01T06:10:18.310Z,51.60
2018-11-01T06:12:46.372Z,53.00
2018-11-01T06:15:14.435Z,52.10
2018-11-01T06:17:42.497Z,51.40
2018-11-01T06:20:11.164Z,50.90
2018-11-01T06:22:39.342Z,51.00
2018-11-01T06:25:08.023Z,51.20
2018-11-01T06:27:36.226Z,51.30
2018-11-01T06:30:06.376Z,51.40
2018-11-01T06:32:34.456Z,51.40
2018-11-01T06:35:04.601Z,50.40
2018-11-01T06:37:32.679Z,50.20
2018-11-01T06:40:00.752Z,50.60
2018-11-01T06:42:28.914Z,50.80
2018-11-01T06:44:57.026Z,51.00
2018-11-01T06:47:25.079Z,51.20
2018-11-01T06:49:53.139Z,51.40
2018-11-01T06:52:21.514Z,51.40
2018-11-01T06:54:49.966Z,51.60
2018-11-01T06:57:18.046Z,51.80
2018-11-01T06:59:46.142Z,51.80
2018-11-01T07:02:14.259Z,51.90
2018-11-01T07:04:42.307Z,52.00
2018-11-01T07:07:10.391Z,52.00
2018-11-01T07:09:38.463Z,52.00
2018-11-01T07:12:06.770Z,52.10
2018-11-01T07:14:34.935Z,52.30
2018-11-01T07:17:03.084Z,52.40
2018-11-01T07:19:31.111Z,52.50
2018-11-01T07:21:59.186Z,52.50
2018-11-01T07:24:27.265Z,53.30
2018-11-01T07:26:55.582Z,52.80
2018-11-01T07:29:23.650Z,52.60
2018-11-01T07:31:51.747Z,52.60
2018-11-01T07:34:19.819Z,52.70
2018-11-01T07:36:47.889Z,52.70
2018-11-01T07:39:15.968Z,52.70
2018-11-01T07:41:44.047Z,52.60
2018-11-01T07:44:12.143Z,52.70
2018-11-01T07:46:40.197Z,52.80
2018-11-01T07:49:08.467Z,52.90
2018-11-01T07:51:36.537Z,52.90
2018-11-01T07:54:05.051Z,53.00
2018-11-01T07:56:33.116Z,52.90
2018-11-01T07:59:01.183Z,52.90
2018-11-01T08:01:29.242Z,52.90
2018-11-01T08:03:57.602Z,52.90
2018-11-01T08:06:25.663Z,52.90
2018-11-01T08:08:53.735Z,52.90
2018-11-01T08:11:21.817Z,52.90
2018-11-01T08:13:49.882Z,52.90
2018-11-01T08:16:17.955Z,52.90
2018-11-01T08:18:46.069Z,52.80
2018-11-01T08:21:14.271Z,53.00
2018-11-01T08:23:42.219Z,53.00
2018-11-01T08:26:10.545Z,53.00
2018-11-01T08:28:38.607Z,53.10
2018-11-01T08:31:06.672Z,53.20
2018-11-01T08:33:34.747Z,53.70
2018-11-01T08:36:02.815Z,53.00
2018-11-01T08:38:30.887Z,53.00
2018-11-01T08:40:59.039Z,53.00
2018-11-01T08:43:27.047Z,53.00
2018-11-01T08:45:55.115Z,53.60
2018-11-01T08:48:23.170Z,53.00
2018-11-01T08:50:51.487Z,53.10
2018-11-01T08:53:19.560Z,53.10
2018-11-01T08:55:47.678Z,53.00
2018-11-01T08:58:16.124Z,53.10
2018-11-01T09:00:44.178Z,53.10
2018-11-01T09:03:12.238Z,53.10
2018-11-01T09:05:40.319Z,53.10
2018-11-01T09:08:08.458Z,53.10
2018-11-01T09:10:36.512Z,53.00
2018-11-01T09:13:04.629Z,53.00
2018-11-01T09:15:32.686Z,53.00
2018-11-01T09:18:00.766Z,53.00
2018-11-01T09:20:28.838Z,53.00
2018-11-01T09:22:56.903Z,53.00
2018-11-01T09:25:24.973Z,52.90
2018-11-01T09:27:53.027Z,52.90
2018-11-01T09:30:21.113Z,52.90
2018-11-01T09:32:49.206Z,52.90
2018-11-01T09:35:17.247Z,53.00
2018-11-01T09:37:45.562Z,53.00
2018-11-01T09:40:15.111Z,53.00
2018-11-01T09:42:43.786Z,53.00
2018-11-01T09:45:12.076Z,52.90
2018-11-01T09:47:40.442Z,53.00
2018-11-01T09:50:09.244Z,52.90
2018-11-01T09:52:37.498Z,53.00
2018-11-01T09:55:05.764Z,52.90
2018-11-01T09:57:33.950Z,52.90
2018-11-01T10:00:02.059Z,52.90
2018-11-01T10:02:30.139Z,52.90
2018-11-01T10:04:58.537Z,52.80
2018-11-01T10:07:26.591Z,52.80
2018-11-01T10:09:54.646Z,52.80
2018-11-01T10:12:22.730Z,52.90
2018-11-01T10:14:50.807Z,52.90
2018-11-01T10:17:19.234Z,52.90
2018-11-01T10:19:46.954Z,52.90
2018-11-01T10:22:15.090Z,52.80
2018-11-01T10:24:43.402Z,52.80
2018-11-01T10:27:19.517Z,52.80
2018-11-01T10:29:39.531Z,52.80
2018-11-01T10:32:07.629Z,52.80
2018-11-01T10:34:35.682Z,52.80
2018-11-01T10:37:03.747Z,52.80
2018-11-01T10:39:32.027Z,52.80
2018-11-01T10:42:00.122Z,52.80
2018-11-01T10:44:28.186Z,52.80
2018-11-01T10:46:56.254Z,52.80
2018-11-01T10:49:24.302Z,52.90
2018-11-01T10:51:52.371Z,53.00
2018-11-01T10:54:20.489Z,53.00
2018-11-01T10:56:48.723Z,53.00
2018-11-01T10:59:17.390Z,53.00
2018-11-01T11:01:50.886Z,53.00
2018-11-01T11:04:18.942Z,52.90
2018-11-01T11:06:47.009Z,53.00
2018-11-01T11:09:15.087Z,53.10
2018-11-01T11:11:43.183Z,53.00
2018-11-01T11:14:11.246Z,53.00
2018-11-01T11:16:39.322Z,53.00
2018-11-01T11:19:07.541Z,53.00
2018-11-01T11:21:35.695Z,53.00
2018-11-01T11:24:03.802Z,53.10
2018-11-01T11:26:31.850Z,53.10
2018-11-01T11:29:00.035Z,53.20
2018-11-01T11:31:28.094Z,53.10
2018-11-01T11:33:56.397Z,53.20
2018-11-01T11:36:24.458Z,53.10
2018-11-01T11:38:52.926Z,53.10
2018-11-01T11:41:21.008Z,53.00
2018-11-01T11:43:49.099Z,53.10
2018-11-01T11:46:17.742Z,53.20
2018-11-01T11:48:46.322Z,53.20
2018-11-01T11:51:14.484Z,53.20
2018-11-01T11:53:42.622Z,53.20
2018-11-01T11:56:10.735Z,53.20
2018-11-01T11:58:38.807Z,53.20
2018-11-01T12:01:06.875Z,53.20
2018-11-01T12:03:35.020Z,53.20
2018-11-01T12:06:03.311Z,53.30
2018-11-01T12:08:31.282Z,53.30
2018-11-01T12:10:59.348Z,53.30
2018-11-01T12:13:27.417Z,53.30
2018-11-01T12:15:55.499Z,53.30
2018-11-01T12:18:23.586Z,53.30
2018-11-01T12:20:51.658Z,53.30
2018-11-01T12:23:20.011Z,53.30
2018-11-01T12:25:48.087Z,53.30
2018-11-01T12:28:16.166Z,53.30
2018-11-01T12:30:44.322Z,53.30
2018-11-01T12:33:12.404Z,53.50
2018-11-01T12:35:40.588Z,53.50
2018-11-01T12:38:08.602Z,53.90
2018-11-01T12:40:36.667Z,54.80
2018-11-01T12:43:05.490Z,54.10
2018-11-01T12:45:33.569Z,54.70
2018-11-01T12:48:01.665Z,53.80
2018-11-01T12:50:29.734Z,53.60
2018-11-01T12:52:57.795Z,53.60
2018-11-01T12:55:26.163Z,53.70
2018-11-01T12:57:54.230Z,53.70
2018-11-01T13:00:22.298Z,53.70
2018-11-01T13:02:50.366Z,53.40
2018-11-01T13:05:18.522Z,53.30
2018-11-01T13:07:46.607Z,53.80
2018-11-01T13:10:14.696Z,54.20
2018-11-01T13:12:43.011Z,57.60
2018-11-01T13:15:11.970Z,60.40
2018-11-01T13:17:40.310Z,61.10
2018-11-01T13:20:09.028Z,63.60
2018-11-01T13:22:37.170Z,63.80
2018-11-01T13:25:06.238Z,57.30
2018-11-01T13:27:34.329Z,57.10
2018-11-01T13:30:02.502Z,53.40
2018-11-01T13:32:31.450Z,51.30
2018-11-01T13:34:59.680Z,50.30
2018-11-01T13:37:27.870Z,52.20
2018-11-01T13:39:56.151Z,51.00
2018-11-01T13:42:24.020Z,51.00
2018-11-01T13:44:52.075Z,51.20
2018-11-01T13:47:20.253Z,51.30
2018-11-01T13:49:48.335Z,51.40
2018-11-01T13:52:16.434Z,51.80
2018-11-01T13:54:44.711Z,52.40
2018-11-01T13:57:13.022Z,53.00
2018-11-01T13:59:41.094Z,53.10
2018-11-01T14:02:09.159Z,53.00
2018-11-01T14:04:37.234Z,53.40
2018-11-01T14:07:05.795Z,52.80
2018-11-01T14:09:33.880Z,52.50
2018-11-01T14:12:01.942Z,52.30
2018-11-01T14:14:30.472Z,52.30
2018-11-01T14:16:58.078Z,52.30
2018-11-01T14:19:26.157Z,52.20
2018-11-01T14:21:54.219Z,52.00
2018-11-01T14:24:22.314Z,52.10
2018-11-01T14:26:50.638Z,52.10
2018-11-01T14:29:18.711Z,52.10
2018-11-01T14:31:46.770Z,52.10
2018-11-01T14:34:14.848Z,52.40
2018-11-01T14:36:42.901Z,52.20
2018-11-01T14:39:11.998Z,52.30
2018-11-01T14:41:40.122Z,52.20
2018-11-01T14:44:08.750Z,52.20
2018-11-01T14:46:37.034Z,52.20
2018-11-01T14:49:05.581Z,52.20
2018-11-01T14:51:33.633Z,52.20
2018-11-01T14:54:02.701Z,52.10
2018-11-01T14:56:30.985Z,52.10
2018-11-01T14:58:59.550Z,52.10
2018-11-01T15:01:26.194Z,52.10
2018-11-01T15:03:54.264Z,52.20
2018-11-01T15:06:22.417Z,52.20
2018-11-01T15:08:50.408Z,52.10
2018-11-01T15:11:18.491Z,52.10
2018-11-01T15:13:46.708Z,52.00
2018-11-01T15:16:14.762Z,51.80
2018-11-01T15:18:42.835Z,51.90
2018-11-01T15:21:10.910Z,51.70
2018-11-01T15:23:38.994Z,51.70
2018-11-01T15:26:07.121Z,51.70
2018-11-01T15:28:35.118Z,51.90
2018-11-01T15:31:03.195Z,53.50
2018-11-01T15:33:31.342Z,54.00
2018-11-01T15:35:59.339Z,53.70
2018-11-01T15:38:27.414Z,53.30
2018-11-01T15:40:59.432Z,53.20
2018-11-01T15:43:27.543Z,53.20
2018-11-01T15:45:55.635Z,52.80
2018-11-01T15:48:24.136Z,52.70
2018-11-01T15:50:52.159Z,52.60
2018-11-01T15:53:20.239Z,52.50
2018-11-01T15:55:48.322Z,52.40
2018-11-01T15:58:16.499Z,52.30
2018-11-01T16:00:44.686Z,52.20
2018-11-01T16:03:12.985Z,52.40
2018-11-01T16:05:41.006Z,52.50
2018-11-01T16:08:09.082Z,52.60
2018-11-01T16:10:37.151Z,52.80
2018-11-01T16:13:05.252Z,54.20
2018-11-01T16:15:33.390Z,58.10
2018-11-01T16:18:01.574Z,55.80
2018-11-01T16:20:29.634Z,54.30
2018-11-01T16:22:57.710Z,53.80
2018-11-01T16:25:25.770Z,53.20
2018-11-01T16:27:53.846Z,53.00
2018-11-01T16:30:22.248Z,53.00
2018-11-01T16:32:50.327Z,52.90
2018-11-01T16:35:18.407Z,52.80
2018-11-01T16:37:46.486Z,52.60
2018-11-01T16:40:14.586Z,52.40
2018-11-01T16:42:42.862Z,52.20
2018-11-01T16:45:13.252Z,52.10
2018-11-01T16:47:41.465Z,52.10
2018-11-01T16:50:10.169Z,52.80
2018-11-01T16:52:38.955Z,52.80
2018-11-01T16:55:07.066Z,52.70
2018-11-01T16:57:35.138Z,52.60
2018-11-01T17:00:03.432Z,52.50
2018-11-01T17:02:31.563Z,52.60
2018-11-01T17:04:59.651Z,52.90
2018-11-01T17:07:27.707Z,52.90
2018-11-01T17:09:55.775Z,52.80
2018-11-01T17:12:23.856Z,52.90
2018-11-01T17:14:51.945Z,52.80
2018-11-01T17:17:20.076Z,52.80
2018-11-01T17:19:48.135Z,52.90
2018-11-01T17:22:16.198Z,52.90
2018-11-01T17:24:44.321Z,52.90
2018-11-01T17:27:12.332Z,52.90
2018-11-01T17:29:40.398Z,53.00
2018-11-01T17:32:08.462Z,53.30
2018-11-01T17:34:36.546Z,53.30
2018-11-01T17:37:04.878Z,53.20
2018-11-01T17:39:32.956Z,53.10
2018-11-01T17:42:01.023Z,53.10
2018-11-01T17:44:29.123Z,53.10
2018-11-01T17:46:57.340Z,53.00
2018-11-01T17:49:25.399Z,53.00
2018-11-01T17:51:54.101Z,53.10
2018-11-01T17:54:22.150Z,53.10
2018-11-01T17:56:50.219Z,53.10
2018-11-01T17:59:18.284Z,53.00
2018-11-01T18:01:46.373Z,53.00
2018-11-01T18:04:14.423Z,53.10
2018-11-01T18:06:42.530Z,53.10
2018-11-01T18:09:12.822Z,53.20
2018-11-01T18:11:40.914Z,53.30
2018-11-01T18:14:09.095Z,53.40
2018-11-01T18:16:37.502Z,53.40
2018-11-01T18:19:05.648Z,53.40
2018-11-01T18:21:33.764Z,53.60
2018-11-01T18:24:01.831Z,53.60
2018-11-01T18:26:30.000Z,53.90
2018-11-01T18:28:58.143Z,55.50
2018-11-01T18:31:26.605Z,55.40
2018-11-01T18:33:54.651Z,55.00
2018-11-01T18:36:22.735Z,55.30
2018-11-01T18:38:50.793Z,55.40
2018-11-01T18:41:18.858Z,55.00
2018-11-01T18:43:46.947Z,55.10
2018-11-01T18:46:15.019Z,56.00
2018-11-01T18:48:43.495Z,56.10
2018-11-01T18:51:11.659Z,55.40
2018-11-01T18:53:39.743Z,55.00
2018-11-01T18:56:07.814Z,54.70
2018-11-01T18:58:35.882Z,54.90
2018-11-01T19:01:03.931Z,54.50
2018-11-01T19:03:32.657Z,54.30
2018-11-01T19:06:01.661Z,54.30
2018-11-01T19:08:29.761Z,54.20
2018-11-01T19:10:57.815Z,54.10
2018-11-01T19:13:26.161Z,54.00
2018-11-01T19:15:54.198Z,54.00
2018-11-01T19:18:22.315Z,54.00
2018-11-01T19:20:50.386Z,54.00
2018-11-01T19:23:18.518Z,53.90
2018-11-01T19:25:46.582Z,54.00
2018-11-01T19:28:14.667Z,53.90
2018-11-01T19:30:42.742Z,53.90
2018-11-01T19:33:10.806Z,53.90
2018-11-01T19:35:38.862Z,53.80
2018-11-01T19:38:06.997Z,53.70
2018-11-01T19:40:35.127Z,53.70
2018-11-01T19:43:03.170Z,53.70
2018-11-01T19:45:31.202Z,53.70
2018-11-01T19:47:59.288Z,53.70
2018-11-01T19:50:27.352Z,53.70
2018-11-01T19:52:55.421Z,53.70
2018-11-01T19:55:23.485Z,53.80
2018-11-01T19:57:51.766Z,53.70
2018-11-01T20:00:20.058Z,53.60
2018-11-01T20:02:48.628Z,53.70
2018-11-01T20:05:16.650Z,53.80
2018-11-01T20:07:44.711Z,53.90
2018-11-01T20:10:13.914Z,53.90
2018-11-01T20:12:42.198Z,53.90
2018-11-01T20:15:10.578Z,53.90
2018-11-01T20:17:38.643Z,54.00
2018-11-01T20:20:08.234Z,53.90
2018-11-01T20:22:36.296Z,53.80
2018-11-01T20:25:04.972Z,53.80
2018-11-01T20:27:33.133Z,53.80
2018-11-01T20:30:01.426Z,53.90
2018-11-01T20:32:29.483Z,53.80
2018-11-01T20:34:57.564Z,53.90
2018-11-01T20:37:25.979Z,53.90
2018-11-01T20:39:54.046Z,53.90
2018-11-01T20:42:22.124Z,53.90
2018-11-01T20:44:50.203Z,53.90
2018-11-01T20:47:18.271Z,53.90
2018-11-01T20:49:46.355Z,53.90
2018-11-01T20:52:14.426Z,53.90
2018-11-01T20:54:42.491Z,53.90
2018-11-01T20:57:10.590Z,53.80
2018-11-01T20:59:38.635Z,53.80
2018-11-01T21:02:06.721Z,53.80
2018-11-01T21:04:35.134Z,53.90
2018-11-01T21:07:03.207Z,53.90
2018-11-01T21:09:31.275Z,53.90
2018-11-01T21:11:59.523Z,53.90
2018-11-01T21:14:27.447Z,54.00
2018-11-01T21:16:55.588Z,54.00
2018-11-01T21:19:23.843Z,53.80
2018-11-01T21:21:51.928Z,54.30
2018-11-01T21:24:19.999Z,54.10
2018-11-01T21:26:48.068Z,54.10
2018-11-01T21:29:16.204Z,53.90
2018-11-01T21:31:44.262Z,54.00
2018-11-01T21:34:12.355Z,53.90
2018-11-01T21:36:40.456Z,54.00
2018-11-01T21:39:08.844Z,53.90
2018-11-01T21:41:37.027Z,53.90
2018-11-01T21:44:05.119Z,53.90
2018-11-01T21:46:33.195Z,53.90
2018-11-01T21:49:01.262Z,53.90
2018-11-01T21:51:29.335Z,53.90
2018-11-01T21:53:57.561Z,53.90
2018-11-01T21:56:25.742Z,54.60
2018-11-01T21:58:53.802Z,54.00
2018-11-01T22:01:21.879Z,54.00
2018-11-01T22:03:49.948Z,54.00
2018-11-01T22:06:18.080Z,54.10
2018-11-01T22:08:46.142Z,54.10
2018-11-01T22:11:14.201Z,54.00
2018-11-01T22:13:42.258Z,54.00
2018-11-01T22:16:10.350Z,54.00
2018-11-01T22:18:38.414Z,54.10
2018-11-01T22:21:06.502Z,54.10
2018-11-01T22:23:34.589Z,54.10
2018-11-01T22:26:02.729Z,54.10
2018-11-01T22:28:30.835Z,54.10
2018-11-01T22:30:58.883Z,54.10
2018-11-01T22:33:26.950Z,54.00
2018-11-01T22:35:55.003Z,54.00
2018-11-01T22:38:23.066Z,54.00
2018-11-01T22:40:51.153Z,54.00
2018-11-01T22:43:19.206Z,54.00
2018-11-01T22:45:47.287Z,54.00
2018-11-01T22:48:15.362Z,54.00
2018-11-01T22:50:43.426Z,54.00
2018-11-01T22:53:11.496Z,54.10
2018-11-01T22:55:39.816Z,54.10
2018-11-01T22:58:07.899Z,54.10
2018-11-01T23:00:40.231Z,54.10
2018-11-01T23:03:08.326Z,54.10
2018-11-01T23:05:36.395Z,54.10
2018-11-01T23:08:04.463Z,54.10
2018-11-01T23:10:32.543Z,54.10
2018-11-01T23:13:00.644Z,54.10
2018-11-01T23:15:28.706Z,54.10
2018-11-01T23:17:56.794Z,54.00
2018-11-01T23:20:24.854Z,54.10
2018-11-01T23:22:52.936Z,54.10
2018-11-01T23:25:21.009Z,54.20
2018-11-01T23:27:49.084Z,54.20
2018-11-01T23:30:17.142Z,54.20
2018-11-01T23:32:45.317Z,54.20
2018-11-01T23:35:13.355Z,54.20
2018-11-01T23:37:47.024Z,54.20
2018-11-01T23:40:20.542Z,54.10
2018-11-01T23:42:54.130Z,54.10
2018-11-01T23:45:27.691Z,54.20
2018-11-01T23:48:00.082Z,54.10
2018-11-01T23:50:38.241Z,54.20
2018-11-01T23:53:09.911Z,54.10
2018-11-01T23:55:38.035Z,54.10
2018-11-01T23:58:06.124Z,54.20
